• Join FlightAware (Why Join?)
  • Login
  • US Flag 
Trick or treat! (Boo!!) 
05:24AM EDT


 

Airport Tracker/Info


-or-


 

Live Flight TrackerFlight Track Log ✈ N8421U ✈ 04-Aug-2014 ✈ KVGC - KART

Flight Track Log - Related Links

Times and Time Zones

All times are in EDT time to prevent confusion due to time zone crossing. See the N8421U flight status page for this flight to view local times or setup timezone preferences in your user account.

Time Position Orientation Groundspeed Altitude Reporting Facility
EDT Latitude Longitude Course Direction KTS MPH feet Rate Location/Type
01:59PM 42.8933 -75.7403 295° West 100 115 2,500  Level Boston Center
01:59PM 42.8978 -75.7533 295° West 102 117 2,500  Level Boston Center
02:00PM 42.9069 -75.7881 290° West 101 116 2,500  Level Boston Center
02:01PM 42.9131 -75.8278 282° West 98 113 2,600  Climbing Boston Center
02:02PM 42.9178 -75.8642 280° West 99 114 2,600  Level Boston Center
02:03PM 42.9222 -75.9006 279° West 110 127 2,700  Climbing Boston Center
02:04PM 42.9203 -75.9375 266° West 112 129 2,700 -60 Level Boston Center
02:05PM 42.9139 -75.9764 257° West 104 120 2,600 -180 Descending Boston Center
02:06PM 42.9053 -76.0144 253° West 104 120 2,400 -360 Descending Boston Center
02:07PM 42.9028 -76.0544 265° West 104 120 1,900 -480 Descending Boston Center
02:08PM 42.8833 -76.0803 224° Southwest 113 130 1,500 -60 Descending Boston Center
02:10PM 42.8961 -76.0814 356° North 90 104 1,800 240 Climbing Boston Center
02:10PM 42.9042 -76.0839 347° North 82 94 2,000 480 Climbing Boston Center
02:11PM 42.9256 -76.0847 358° North 77 89 2,500 420 Climbing Boston Center
02:12PM 42.9522 -76.0786 10° North 85 98 3,000 180 Climbing Boston Center
02:13PM 42.9803 -76.0758 North 109 125 3,000 -60 Level Boston Center
02:14PM 43.0117 -76.0681 10° North 112 129 2,900  Descending Boston Center
02:15PM 43.0400 -76.0653 North 105 121 3,000  Climbing Boston Center
02:16PM 43.0747 -76.0617 North 106 122 3,000 -60 Level Boston Center
02:17PM 43.1025 -76.0617 360° North 103 119 2,900  Descending Boston Center
02:18PM 43.1325 -76.0622 359° North 104 120 3,000  Climbing Boston Center
02:19PM 43.1653 -76.0581 North 108 124 2,900 -180 Descending Boston Center
02:20PM 43.1964 -76.0503 10° North 109 125 2,700 -120 Descending Boston Center
02:21PM 43.2267 -76.0481 North 112 129 2,700  Level Boston Center
02:23PM 43.2564 -76.0486 359° North 106 122 2,700  Level Boston Center
02:24PM 43.2833 -76.0425 North 104 120 2,800 60 Climbing Boston Center
02:25PM 43.3164 -76.0356 North 107 123 2,900  Climbing Boston Center
02:26PM 43.3428 -76.0436 347° North 105 121 2,800 -60 Descending Boston Center
02:27PM 43.3747 -76.0450 358° North 111 128 2,800  Level Boston Center
02:28PM 43.4092 -76.0442 North 108 124 2,800  Level Boston Center
02:29PM 43.4400 -76.0392 North 106 122 2,900  Climbing Boston Center
02:30PM 43.4703 -76.0369 North 108 124 2,900  Level Boston Center
02:31PM 43.4947 -76.0300 12° North 109 125 2,900  Level Boston Center
02:32PM 43.5247 -76.0308 359° North 108 124 2,900  Level Boston Center
02:33PM 43.5519 -76.0333 356° North 108 124 2,900  Level Boston Center
02:34PM 43.5819 -76.0342 359° North 106 122 2,900  Level Boston Center